Mr Thomas — WDD7163 — position and weather

sailwx.info

Track history (hours):
 
Tides and Currents Weather Stations Pressure Air Temp Water Temp Dewpoint Dewpoint Depression Visibility Wind Speed Wind Dir Waves Ship Positions

Mr Thomas

Owner: CENTRAL BOAT RENTALS, BERWICK, LA. More information available from US FCC via Universal Licensing System and Coast Guard Vessel Documentation Center.

Last reported at 2014-Dec-21 08:07 UTC. Time now 2014-Dec-22 04:12 UTC.
Position N 29°42' W 091°32'.

Length 21 m.

Type: Tug. MMSI: 367182730.

Date/timePositionNaut miles runAvg speedWind from/ knotsBaromVisibWave heightAir tempDewpointWater temp
2014-Dec-21 08:07N 29°42' W 091°32'5 8.5
2014-Dec-21 07:31N 29°40' W 091°27'7 7.3
2014-Dec-21 06:33N 29°38' W 091°19'5 5.0
2014-Dec-21 05:32N 29°41' W 091°13'0 0.0
2014-Dec-21 04:32N 29°41' W 091°13'0 0.0
2014-Dec-21 03:32N 29°41' W 091°13'0 0.0
2014-Dec-21 02:32N 29°41' W 091°13'0 0.0
2014-Dec-21 01:32N 29°41' W 091°13'0 0.0
2014-Dec-21 00:32N 29°41' W 091°13'1 0.7
2014-Dec-20 23:33N 29°41' W 091°13'0 0.4
2014-Dec-20 22:31N 29°42' W 091°13'0 0.0
2014-Dec-20 21:31N 29°42' W 091°13'0 0.0
2014-Dec-20 20:31N 29°42' W 091°13'0 0.0
2014-Dec-20 19:31N 29°42' W 091°13'0 0.0
2014-Dec-20 18:31N 29°42' W 091°13'0 0.0
2014-Dec-20 17:31N 29°42' W 091°13'0 0.0
2014-Dec-20 16:31N 29°42' W 091°13'0 0.0
2014-Dec-20 15:31N 29°42' W 091°13'0 0.0
2014-Dec-20 14:31N 29°42' W 091°13'0 0.0
2014-Dec-20 13:31N 29°42' W 091°13'0 0.0
2014-Dec-20 12:31N 29°42' W 091°13'0 0.0
2014-Dec-20 11:31N 29°42' W 091°13'0 0.0
2014-Dec-20 10:31N 29°42' W 091°13'0 0.0
2014-Dec-20 09:31N 29°42' W 091°13'0 0.0
2014-Dec-20 08:31N 29°42' W 091°13'0 0.0
2014-Dec-20 07:31N 29°42' W 091°13'0 0.0
2014-Dec-20 06:31N 29°42' W 091°13'0 0.0
2014-Dec-20 05:31N 29°42' W 091°13'0 0.0
2014-Dec-20 04:31N 29°42' W 091°13'0 0.0
2014-Dec-20 03:31N 29°42' W 091°13'0 0.0
2014-Dec-20 02:31N 29°42' W 091°13'1 1.2
2014-Dec-20 01:33N 29°41' W 091°13'0 0.0
2014-Dec-20 00:33N 29°41' W 091°13'0 0.0
2014-Dec-19 23:33N 29°41' W 091°13'0 0.0
2014-Dec-19 22:33N 29°41' W 091°13'0 0.0
2014-Dec-19 21:33N 29°41' W 091°13'0 0.1
2014-Dec-19 20:32N 29°41' W 091°13'4 3.9
2014-Dec-19 19:31N 29°41' W 091°09'0 0.0
2014-Dec-19 18:31N 29°41' W 091°09'0 0.0
2014-Dec-19 17:31N 29°41' W 091°09'0 0.0
2014-Dec-19 16:31N 29°41' W 091°09'0 0.0
2014-Dec-19 15:31N 29°41' W 091°09'0 0.0
2014-Dec-19 14:31N 29°41' W 091°09'0 0.1
2014-Dec-19 13:33N 29°41' W 091°09'0 0.0
2014-Dec-19 12:33N 29°41' W 091°09'0 0.0
2014-Dec-19 11:33N 29°41' W 091°09'0 0.0
2014-Dec-19 10:33N 29°41' W 091°09'0 0.0
2014-Dec-19 09:33N 29°41' W 091°09'0 0.0
2014-Dec-19 08:33N 29°41' W 091°09'0 0.0
2014-Dec-19 07:33N 29°41' W 091°09'0 0.0
2014-Dec-19 06:33N 29°41' W 091°09'0 0.0
2014-Dec-19 05:33N 29°41' W 091°09'0 0.0
2014-Dec-19 04:33N 29°41' W 091°09'0 0.0
2014-Dec-19 03:33N 29°41' W 091°09'0 0.0
2014-Dec-19 02:33N 29°41' W 091°09'0 0.0
2014-Dec-19 01:33N 29°41' W 091°09'0 0.0
2014-Dec-19 00:33N 29°41' W 091°09'0 0.0
2014-Dec-18 23:33N 29°41' W 091°09'0 0.0
2014-Dec-18 22:33N 29°41' W 091°09'0 0.0
2014-Dec-18 21:32N 29°41' W 091°09'0 0.0
2014-Dec-18 20:32N 29°41' W 091°09'0 0.0
2014-Dec-18 19:32N 29°41' W 091°09'0 0.0
2014-Dec-18 18:32N 29°41' W 091°09'0 0.0
2014-Dec-18 17:32N 29°41' W 091°09'0 0.0
2014-Dec-18 16:32N 29°41' W 091°09'0 0.0
2014-Dec-18 15:32N 29°41' W 091°09'3 2.6
2014-Dec-18 14:33N 29°39' W 091°07'1 1.0
2014-Dec-18 13:33N 29°39' W 091°06'2 2.0
2014-Dec-18 12:33N 29°40' W 091°08'1 1.3
2014-Dec-18 11:31N 29°41' W 091°09'0 0.0
2014-Dec-18 10:31N 29°41' W 091°09'0 0.0
2014-Dec-18 09:31N 29°41' W 091°09'0 0.0
2014-Dec-18 08:31N 29°41' W 091°09'0 0.0
2014-Dec-18 07:31N 29°41' W 091°09'0 0.0
2014-Dec-18 06:31N 29°41' W 091°09'0 0.0
2014-Dec-18 05:31N 29°41' W 091°09'0 0.0
2014-Dec-18 04:31N 29°41' W 091°09'0 0.0
2014-Dec-18 03:31N 29°41' W 091°09'0 0.0
2014-Dec-18 02:31N 29°41' W 091°09'0 0.0
2014-Dec-18 01:31N 29°41' W 091°09'0 0.0
2014-Dec-18 00:31N 29°41' W 091°09'1 1.0
2014-Dec-17 23:33N 29°40' W 091°08'5 5.2
2014-Dec-17 22:33N 29°38' W 091°03'2 1.6
2014-Dec-17 21:33N 29°38' W 091°04'4 4.3
2014-Dec-17 20:33N 29°40' W 091°08'2 2.0
2014-Dec-17 19:32N 29°41' W 091°10'0 0.1
2014-Dec-17 18:31N 29°41' W 091°10'0 0.0
2014-Dec-17 17:31N 29°41' W 091°10'0 0.0
2014-Dec-17 16:31N 29°41' W 091°10'0 0.0
2014-Dec-17 15:31N 29°41' W 091°10'0 0.0
2014-Dec-17 14:31N 29°41' W 091°10'1 1.2
2014-Dec-17 13:34N 29°41' W 091°12'2 1.8
2014-Dec-17 12:32N 29°41' W 091°13'0 0.0
2014-Dec-17 11:32N 29°41' W 091°14'0 0.0
2014-Dec-17 10:32N 29°41' W 091°14'0 0.0
2014-Dec-17 09:32N 29°41' W 091°14'0 0.0
2014-Dec-17 08:32N 29°41' W 091°14'0 0.0
2014-Dec-17 07:32N 29°41' W 091°14'0 0.0
2014-Dec-17 06:32N 29°41' W 091°14'0 0.0
2014-Dec-17 05:32N 29°41' W 091°14'0 0.0
2014-Dec-17 04:32N 29°41' W 091°14'0 0.0
2014-Dec-17 03:32N 29°41' W 091°14'0 0.0
2014-Dec-17 02:32N 29°41' W 091°14'0 0.0
2014-Dec-17 01:32N 29°41' W 091°13'0 0.0
2014-Dec-17 00:32N 29°41' W 091°14'0 0.4
2014-Dec-16 23:33N 29°41' W 091°13'0 0.1
2014-Dec-16 22:33N 29°41' W 091°13'0 0.5
2014-Dec-16 21:33N 29°41' W 091°13'0 0.0
2014-Dec-16 20:33N 29°41' W 091°13'0 0.0
2014-Dec-16 19:33N 29°41' W 091°13'0 0.0
2014-Dec-16 18:33N 29°41' W 091°13'1 1.5
2014-Dec-16 17:33N 29°40' W 091°12'1 1.5
2014-Dec-16 16:33N 29°41' W 091°13'0 0.0
2014-Dec-16 15:33N 29°41' W 091°13'0 0.0
2014-Dec-16 14:33N 29°41' W 091°14'0 0.0
2014-Dec-16 13:33N 29°41' W 091°14'0 0.0
2014-Dec-16 12:33N 29°41' W 091°14'0 0.0
2014-Dec-16 11:33N 29°41' W 091°14'0 0.0
2014-Dec-16 10:33N 29°41' W 091°14'0 0.0
2014-Dec-16 09:33N 29°41' W 091°14'0 0.0
2014-Dec-16 08:30N 29°41' W 091°14'0 0.0
2014-Dec-16 07:33N 29°41' W 091°14'0 0.0
2014-Dec-16 06:33N 29°41' W 091°14'0 0.0
2014-Dec-16 05:33N 29°41' W 091°14'0 0.0
2014-Dec-16 04:24N 29°41' W 091°14'0 0.0
2014-Dec-16 03:30N 29°41' W 091°14'0 0.0
2014-Dec-16 02:30N 29°41' W 091°14'0 0.0
2014-Dec-16 01:09N 29°41' W 091°14'0 0.0
2014-Dec-15 23:33N 29°41' W 091°14'0 0.0
2014-Dec-15 22:33N 29°41' W 091°14'0 0.0
2014-Dec-15 21:33N 29°41' W 091°14'0 0.0
2014-Dec-15 20:33N 29°41' W 091°14'0 0.0
2014-Dec-15 19:33N 29°41' W 091°14'0 0.1
2014-Dec-15 18:29N 29°41' W 091°13'0 0.0
2014-Dec-15 17:32N 29°41' W 091°13'0 0.0
2014-Dec-15 16:32N 29°41' W 091°13'0 0.0
2014-Dec-15 15:32N 29°41' W 091°13'0 0.0
2014-Dec-15 14:32N 29°41' W 091°13'0 0.0
2014-Dec-15 13:32N 29°41' W 091°13'0 0.0
2014-Dec-15 12:33N 29°41' W 091°13'0 0.0
2014-Dec-15 11:32N 29°41' W 091°13'0 0.0
2014-Dec-15 10:32N 29°41' W 091°13'0 0.0
2014-Dec-15 09:32N 29°41' W 091°13'0 0.0
2014-Dec-15 08:32N 29°41' W 091°13'0 0.0
2014-Dec-15 07:32N 29°41' W 091°13'0 0.0
2014-Dec-15 06:32N 29°41' W 091°13'0 0.0
2014-Dec-15 05:32N 29°41' W 091°13'0 0.0
2014-Dec-15 04:32N 29°41' W 091°13'0 0.0
2014-Dec-15 03:32N 29°41' W 091°13'0 0.0
2014-Dec-15 02:32N 29°41' W 091°13'0 0.0
2014-Dec-15 01:32N 29°41' W 091°13'0 0.0
2014-Dec-15 00:32N 29°41' W 091°13'0 0.0
2014-Dec-14 23:32N 29°41' W 091°13'0 0.0
2014-Dec-14 22:32N 29°41' W 091°13'0 0.0
2014-Dec-14 21:32N 29°41' W 091°13'0 0.0
2014-Dec-14 20:32N 29°41' W 091°13'0 0.0
2014-Dec-14 19:32N 29°41' W 091°13'0 0.0
2014-Dec-14 18:32N 29°41' W 091°13'0 0.0
2014-Dec-14 17:32N 29°41' W 091°13'0 0.0
2014-Dec-14 16:32N 29°41' W 091°13'0 0.0
2014-Dec-14 15:32N 29°41' W 091°13'0 0.0
2014-Dec-14 14:32N 29°41' W 091°13'0 0.0
2014-Dec-14 13:32N 29°41' W 091°13'0 0.0
2014-Dec-14 12:32N 29°41' W 091°13'0 0.0
2014-Dec-14 11:32N 29°41' W 091°13'0 0.0
2014-Dec-14 10:32N 29°41' W 091°13'0 0.0
2014-Dec-14 09:32N 29°41' W 091°13'0 0.0
2014-Dec-14 08:32N 29°41' W 091°13'0 0.0
2014-Dec-14 07:32N 29°41' W 091°13'0 0.0
2014-Dec-14 06:32N 29°41' W 091°13'0 0.0
2014-Dec-14 05:32N 29°41' W 091°13'0 0.0
2014-Dec-14 04:32N 29°41' W 091°13'0 0.0
2014-Dec-14 03:32N 29°41' W 091°13'0 0.0
2014-Dec-14 02:32N 29°41' W 091°13'0 0.0
2014-Dec-14 01:32N 29°41' W 091°13'0 0.0
2014-Dec-14 00:32N 29°41' W 091°13'0 0.0
2014-Dec-13 23:32N 29°41' W 091°13'0 0.0
2014-Dec-13 22:32N 29°41' W 091°13'0 0.0
2014-Dec-13 21:32N 29°41' W 091°13'0 0.0
2014-Dec-13 20:32N 29°41' W 091°13'0 0.0
2014-Dec-13 19:32N 29°41' W 091°13'0 0.0
2014-Dec-13 18:32N 29°41' W 091°13'0 0.0
2014-Dec-13 17:32N 29°41' W 091°13'0 0.0
2014-Dec-13 16:32N 29°41' W 091°13'0 0.0
2014-Dec-13 15:32N 29°41' W 091°13'0 0.0
2014-Dec-13 14:32N 29°41' W 091°13'0 0.0
2014-Dec-13 13:32N 29°41' W 091°13'0 0.0
2014-Dec-13 12:32N 29°41' W 091°13'0 0.0
2014-Dec-13 11:32N 29°41' W 091°13'0 0.0
2014-Dec-13 10:32N 29°41' W 091°13'0 0.0
2014-Dec-13 09:32N 29°41' W 091°13'0 0.0
2014-Dec-13 08:32N 29°41' W 091°13'0 0.0
2014-Dec-13 07:32N 29°41' W 091°13'0 0.0
2014-Dec-13 06:32N 29°41' W 091°13'0 0.0
2014-Dec-13 05:32N 29°41' W 091°13'0 0.0
2014-Dec-13 04:32N 29°41' W 091°13'0 0.0
2014-Dec-13 03:32N 29°41' W 091°13'0 0.0
2014-Dec-13 02:32N 29°41' W 091°13'0 0.0
2014-Dec-13 01:32N 29°41' W 091°13'0 0.0
2014-Dec-13 00:32N 29°41' W 091°13'0 0.0
2014-Dec-12 23:32N 29°41' W 091°13'0 0.0
2014-Dec-12 22:32N 29°41' W 091°13'0 0.0
2014-Dec-12 21:32N 29°41' W 091°13'0 0.0
2014-Dec-12 20:32N 29°41' W 091°13'0 0.0
2014-Dec-12 19:32N 29°41' W 091°13'0 0.0
2014-Dec-12 18:32N 29°41' W 091°13'0 0.0
2014-Dec-12 17:32N 29°41' W 091°13'0 0.0
2014-Dec-12 16:32N 29°41' W 091°13'0 0.0
2014-Dec-12 15:32N 29°41' W 091°13'0 0.0
2014-Dec-12 14:32N 29°41' W 091°13'0 0.0
2014-Dec-12 13:29N 29°41' W 091°13'0 0.0
2014-Dec-12 12:32N 29°41' W 091°13'0 0.0
2014-Dec-12 11:32N 29°41' W 091°13'0 0.0
2014-Dec-12 10:32N 29°41' W 091°13'0 0.0
2014-Dec-12 09:32N 29°41' W 091°13'1 0.9
2014-Dec-12 08:31N 29°40' W 091°14'1 1.0
2014-Dec-12 07:32N 29°41' W 091°13'0 0.0
2014-Dec-12 06:32N 29°41' W 091°13'0 0.0
2014-Dec-12 05:32N 29°41' W 091°13'0 0.0
2014-Dec-12 04:32N 29°41' W 091°13'0 0.0
2014-Dec-12 03:32N 29°41' W 091°13'0 0.0
2014-Dec-12 02:32N 29°41' W 091°13'4 4.1
2014-Dec-12 01:33N 29°41' W 091°09'6 5.9
2014-Dec-12 00:33N 29°37' W 091°03'7 6.7
2014-Dec-11 23:33N 29°34' W 090°57'  
Track history (hours):
 
Tides and Currents Weather Stations Pressure Air Temp Water Temp Dewpoint Dewpoint Depression Visibility Wind Speed Wind Dir Waves Ship Positions

Mr Thomas

Owner: CENTRAL BOAT RENTALS, BERWICK, LA. More information available from US FCC via Universal Licensing System and Coast Guard Vessel Documentation Center.

Last reported at 2014-Dec-21 08:07 UTC. Time now 2014-Dec-22 04:12 UTC.
Position N 29°42' W 091°32'.

Length 21 m.

Type: Tug. MMSI: 367182730.

Date/timePositionNaut miles runAvg speedWind from/ knotsBaromVisibWave heightAir tempDewpointWater temp
2014-Dec-21 08:07N 29°42' W 091°32'5 8.5
2014-Dec-21 07:31N 29°40' W 091°27'7 7.3
2014-Dec-21 06:33N 29°38' W 091°19'5 5.0
2014-Dec-21 05:32N 29°41' W 091°13'0 0.0
2014-Dec-21 04:32N 29°41' W 091°13'0 0.0
2014-Dec-21 03:32N 29°41' W 091°13'0 0.0
2014-Dec-21 02:32N 29°41' W 091°13'0 0.0
2014-Dec-21 01:32N 29°41' W 091°13'0 0.0
2014-Dec-21 00:32N 29°41' W 091°13'1 0.7
2014-Dec-20 23:33N 29°41' W 091°13'0 0.4
2014-Dec-20 22:31N 29°42' W 091°13'0 0.0
2014-Dec-20 21:31N 29°42' W 091°13'0 0.0
2014-Dec-20 20:31N 29°42' W 091°13'0 0.0
2014-Dec-20 19:31N 29°42' W 091°13'0 0.0
2014-Dec-20 18:31N 29°42' W 091°13'0 0.0
2014-Dec-20 17:31N 29°42' W 091°13'0 0.0
2014-Dec-20 16:31N 29°42' W 091°13'0 0.0
2014-Dec-20 15:31N 29°42' W 091°13'0 0.0
2014-Dec-20 14:31N 29°42' W 091°13'0 0.0
2014-Dec-20 13:31N 29°42' W 091°13'0 0.0
2014-Dec-20 12:31N 29°42' W 091°13'0 0.0
2014-Dec-20 11:31N 29°42' W 091°13'0 0.0
2014-Dec-20 10:31N 29°42' W 091°13'0 0.0
2014-Dec-20 09:31N 29°42' W 091°13'0 0.0
2014-Dec-20 08:31N 29°42' W 091°13'0 0.0
2014-Dec-20 07:31N 29°42' W 091°13'0 0.0
2014-Dec-20 06:31N 29°42' W 091°13'0 0.0
2014-Dec-20 05:31N 29°42' W 091°13'0 0.0
2014-Dec-20 04:31N 29°42' W 091°13'0 0.0
2014-Dec-20 03:31N 29°42' W 091°13'0 0.0
2014-Dec-20 02:31N 29°42' W 091°13'1 1.2
2014-Dec-20 01:33N 29°41' W 091°13'0 0.0
2014-Dec-20 00:33N 29°41' W 091°13'0 0.0
2014-Dec-19 23:33N 29°41' W 091°13'0 0.0
2014-Dec-19 22:33N 29°41' W 091°13'0 0.0
2014-Dec-19 21:33N 29°41' W 091°13'0 0.1
2014-Dec-19 20:32N 29°41' W 091°13'4 3.9
2014-Dec-19 19:31N 29°41' W 091°09'0 0.0
2014-Dec-19 18:31N 29°41' W 091°09'0 0.0
2014-Dec-19 17:31N 29°41' W 091°09'0 0.0
2014-Dec-19 16:31N 29°41' W 091°09'0 0.0
2014-Dec-19 15:31N 29°41' W 091°09'0 0.0
2014-Dec-19 14:31N 29°41' W 091°09'0 0.1
2014-Dec-19 13:33N 29°41' W 091°09'0 0.0
2014-Dec-19 12:33N 29°41' W 091°09'0 0.0
2014-Dec-19 11:33N 29°41' W 091°09'0 0.0
2014-Dec-19 10:33N 29°41' W 091°09'0 0.0
2014-Dec-19 09:33N 29°41' W 091°09'0 0.0
2014-Dec-19 08:33N 29°41' W 091°09'0 0.0
2014-Dec-19 07:33N 29°41' W 091°09'0 0.0
2014-Dec-19 06:33N 29°41' W 091°09'0 0.0
2014-Dec-19 05:33N 29°41' W 091°09'0 0.0
2014-Dec-19 04:33N 29°41' W 091°09'0 0.0
2014-Dec-19 03:33N 29°41' W 091°09'0 0.0
2014-Dec-19 02:33N 29°41' W 091°09'0 0.0
2014-Dec-19 01:33N 29°41' W 091°09'0 0.0
2014-Dec-19 00:33N 29°41' W 091°09'0 0.0
2014-Dec-18 23:33N 29°41' W 091°09'0 0.0
2014-Dec-18 22:33N 29°41' W 091°09'0 0.0
2014-Dec-18 21:32N 29°41' W 091°09'0 0.0
2014-Dec-18 20:32N 29°41' W 091°09'0 0.0
2014-Dec-18 19:32N 29°41' W 091°09'0 0.0
2014-Dec-18 18:32N 29°41' W 091°09'0 0.0
2014-Dec-18 17:32N 29°41' W 091°09'0 0.0
2014-Dec-18 16:32N 29°41' W 091°09'0 0.0
2014-Dec-18 15:32N 29°41' W 091°09'3 2.6
2014-Dec-18 14:33N 29°39' W 091°07'1 1.0
2014-Dec-18 13:33N 29°39' W 091°06'2 2.0
2014-Dec-18 12:33N 29°40' W 091°08'1 1.3
2014-Dec-18 11:31N 29°41' W 091°09'0 0.0
2014-Dec-18 10:31N 29°41' W 091°09'0 0.0
2014-Dec-18 09:31N 29°41' W 091°09'0 0.0
2014-Dec-18 08:31N 29°41' W 091°09'0 0.0
2014-Dec-18 07:31N 29°41' W 091°09'0 0.0
2014-Dec-18 06:31N 29°41' W 091°09'0 0.0
2014-Dec-18 05:31N 29°41' W 091°09'0 0.0
2014-Dec-18 04:31N 29°41' W 091°09'0 0.0
2014-Dec-18 03:31N 29°41' W 091°09'0 0.0
2014-Dec-18 02:31N 29°41' W 091°09'0 0.0
2014-Dec-18 01:31N 29°41' W 091°09'0 0.0
2014-Dec-18 00:31N 29°41' W 091°09'1 1.0
2014-Dec-17 23:33N 29°40' W 091°08'5 5.2
2014-Dec-17 22:33N 29°38' W 091°03'2 1.6
2014-Dec-17 21:33N 29°38' W 091°04'4 4.3
2014-Dec-17 20:33N 29°40' W 091°08'2 2.0
2014-Dec-17 19:32N 29°41' W 091°10'0 0.1
2014-Dec-17 18:31N 29°41' W 091°10'0 0.0
2014-Dec-17 17:31N 29°41' W 091°10'0 0.0
2014-Dec-17 16:31N 29°41' W 091°10'0 0.0
2014-Dec-17 15:31N 29°41' W 091°10'0 0.0
2014-Dec-17 14:31N 29°41' W 091°10'1 1.2
2014-Dec-17 13:34N 29°41' W 091°12'2 1.8
2014-Dec-17 12:32N 29°41' W 091°13'0 0.0
2014-Dec-17 11:32N 29°41' W 091°14'0 0.0
2014-Dec-17 10:32N 29°41' W 091°14'0 0.0
2014-Dec-17 09:32N 29°41' W 091°14'0 0.0
2014-Dec-17 08:32N 29°41' W 091°14'0 0.0
2014-Dec-17 07:32N 29°41' W 091°14'0 0.0
2014-Dec-17 06:32N 29°41' W 091°14'0 0.0
2014-Dec-17 05:32N 29°41' W 091°14'0 0.0
2014-Dec-17 04:32N 29°41' W 091°14'0 0.0
2014-Dec-17 03:32N 29°41' W 091°14'0 0.0
2014-Dec-17 02:32N 29°41' W 091°14'0 0.0
2014-Dec-17 01:32N 29°41' W 091°13'0 0.0
2014-Dec-17 00:32N 29°41' W 091°14'0 0.4
2014-Dec-16 23:33N 29°41' W 091°13'0 0.1
2014-Dec-16 22:33N 29°41' W 091°13'0 0.5
2014-Dec-16 21:33N 29°41' W 091°13'0 0.0
2014-Dec-16 20:33N 29°41' W 091°13'0 0.0
2014-Dec-16 19:33N 29°41' W 091°13'0 0.0
2014-Dec-16 18:33N 29°41' W 091°13'1 1.5
2014-Dec-16 17:33N 29°40' W 091°12'1 1.5
2014-Dec-16 16:33N 29°41' W 091°13'0 0.0
2014-Dec-16 15:33N 29°41' W 091°13'0 0.0
2014-Dec-16 14:33N 29°41' W 091°14'0 0.0
2014-Dec-16 13:33N 29°41' W 091°14'0 0.0
2014-Dec-16 12:33N 29°41' W 091°14'0 0.0
2014-Dec-16 11:33N 29°41' W 091°14'0 0.0
2014-Dec-16 10:33N 29°41' W 091°14'0 0.0
2014-Dec-16 09:33N 29°41' W 091°14'0 0.0
2014-Dec-16 08:30N 29°41' W 091°14'0 0.0
2014-Dec-16 07:33N 29°41' W 091°14'0 0.0
2014-Dec-16 06:33N 29°41' W 091°14'0 0.0
2014-Dec-16 05:33N 29°41' W 091°14'0 0.0
2014-Dec-16 04:24N 29°41' W 091°14'0 0.0
2014-Dec-16 03:30N 29°41' W 091°14'0 0.0
2014-Dec-16 02:30N 29°41' W 091°14'0 0.0
2014-Dec-16 01:09N 29°41' W 091°14'0 0.0
2014-Dec-15 23:33N 29°41' W 091°14'0 0.0
2014-Dec-15 22:33N 29°41' W 091°14'0 0.0
2014-Dec-15 21:33N 29°41' W 091°14'0 0.0
2014-Dec-15 20:33N 29°41' W 091°14'0 0.0
2014-Dec-15 19:33N 29°41' W 091°14'0 0.1
2014-Dec-15 18:29N 29°41' W 091°13'0 0.0
2014-Dec-15 17:32N 29°41' W 091°13'0 0.0
2014-Dec-15 16:32N 29°41' W 091°13'0 0.0
2014-Dec-15 15:32N 29°41' W 091°13'0 0.0
2014-Dec-15 14:32N 29°41' W 091°13'0 0.0
2014-Dec-15 13:32N 29°41' W 091°13'0 0.0
2014-Dec-15 12:33N 29°41' W 091°13'0 0.0
2014-Dec-15 11:32N 29°41' W 091°13'0 0.0
2014-Dec-15 10:32N 29°41' W 091°13'0 0.0
2014-Dec-15 09:32N 29°41' W 091°13'0 0.0
2014-Dec-15 08:32N 29°41' W 091°13'0 0.0
2014-Dec-15 07:32N 29°41' W 091°13'0 0.0
2014-Dec-15 06:32N 29°41' W 091°13'0 0.0
2014-Dec-15 05:32N 29°41' W 091°13'0 0.0
2014-Dec-15 04:32N 29°41' W 091°13'0 0.0
2014-Dec-15 03:32N 29°41' W 091°13'0 0.0
2014-Dec-15 02:32N 29°41' W 091°13'0 0.0
2014-Dec-15 01:32N 29°41' W 091°13'0 0.0
2014-Dec-15 00:32N 29°41' W 091°13'0 0.0
2014-Dec-14 23:32N 29°41' W 091°13'0 0.0
2014-Dec-14 22:32N 29°41' W 091°13'0 0.0
2014-Dec-14 21:32N 29°41' W 091°13'0 0.0
2014-Dec-14 20:32N 29°41' W 091°13'0 0.0
2014-Dec-14 19:32N 29°41' W 091°13'0 0.0
2014-Dec-14 18:32N 29°41' W 091°13'0 0.0
2014-Dec-14 17:32N 29°41' W 091°13'0 0.0
2014-Dec-14 16:32N 29°41' W 091°13'0 0.0
2014-Dec-14 15:32N 29°41' W 091°13'0 0.0
2014-Dec-14 14:32N 29°41' W 091°13'0 0.0
2014-Dec-14 13:32N 29°41' W 091°13'0 0.0
2014-Dec-14 12:32N 29°41' W 091°13'0 0.0
2014-Dec-14 11:32N 29°41' W 091°13'0 0.0
2014-Dec-14 10:32N 29°41' W 091°13'0 0.0
2014-Dec-14 09:32N 29°41' W 091°13'0 0.0
2014-Dec-14 08:32N 29°41' W 091°13'0 0.0
2014-Dec-14 07:32N 29°41' W 091°13'0 0.0
2014-Dec-14 06:32N 29°41' W 091°13'0 0.0
2014-Dec-14 05:32N 29°41' W 091°13'0 0.0
2014-Dec-14 04:32N 29°41' W 091°13'0 0.0
2014-Dec-14 03:32N 29°41' W 091°13'0 0.0
2014-Dec-14 02:32N 29°41' W 091°13'0 0.0
2014-Dec-14 01:32N 29°41' W 091°13'0 0.0
2014-Dec-14 00:32N 29°41' W 091°13'0 0.0
2014-Dec-13 23:32N 29°41' W 091°13'0 0.0
2014-Dec-13 22:32N 29°41' W 091°13'0 0.0
2014-Dec-13 21:32N 29°41' W 091°13'0 0.0
2014-Dec-13 20:32N 29°41' W 091°13'0 0.0
2014-Dec-13 19:32N 29°41' W 091°13'0 0.0
2014-Dec-13 18:32N 29°41' W 091°13'0 0.0
2014-Dec-13 17:32N 29°41' W 091°13'0 0.0
2014-Dec-13 16:32N 29°41' W 091°13'0 0.0
2014-Dec-13 15:32N 29°41' W 091°13'0 0.0
2014-Dec-13 14:32N 29°41' W 091°13'0 0.0
2014-Dec-13 13:32N 29°41' W 091°13'0 0.0
2014-Dec-13 12:32N 29°41' W 091°13'0 0.0
2014-Dec-13 11:32N 29°41' W 091°13'0 0.0
2014-Dec-13 10:32N 29°41' W 091°13'0 0.0
2014-Dec-13 09:32N 29°41' W 091°13'0 0.0
2014-Dec-13 08:32N 29°41' W 091°13'0 0.0
2014-Dec-13 07:32N 29°41' W 091°13'0 0.0
2014-Dec-13 06:32N 29°41' W 091°13'0 0.0
2014-Dec-13 05:32N 29°41' W 091°13'0 0.0
2014-Dec-13 04:32N 29°41' W 091°13'0 0.0
2014-Dec-13 03:32N 29°41' W 091°13'0 0.0
2014-Dec-13 02:32N 29°41' W 091°13'0 0.0
2014-Dec-13 01:32N 29°41' W 091°13'0 0.0
2014-Dec-13 00:32N 29°41' W 091°13'0 0.0
2014-Dec-12 23:32N 29°41' W 091°13'0 0.0
2014-Dec-12 22:32N 29°41' W 091°13'0 0.0
2014-Dec-12 21:32N 29°41' W 091°13'0 0.0
2014-Dec-12 20:32N 29°41' W 091°13'0 0.0
2014-Dec-12 19:32N 29°41' W 091°13'0 0.0
2014-Dec-12 18:32N 29°41' W 091°13'0 0.0
2014-Dec-12 17:32N 29°41' W 091°13'0 0.0
2014-Dec-12 16:32N 29°41' W 091°13'0 0.0
2014-Dec-12 15:32N 29°41' W 091°13'0 0.0
2014-Dec-12 14:32N 29°41' W 091°13'0 0.0
2014-Dec-12 13:29N 29°41' W 091°13'0 0.0
2014-Dec-12 12:32N 29°41' W 091°13'0 0.0
2014-Dec-12 11:32N 29°41' W 091°13'0 0.0
2014-Dec-12 10:32N 29°41' W 091°13'0 0.0
2014-Dec-12 09:32N 29°41' W 091°13'1 0.9
2014-Dec-12 08:31N 29°40' W 091°14'1 1.0
2014-Dec-12 07:32N 29°41' W 091°13'0 0.0
2014-Dec-12 06:32N 29°41' W 091°13'0 0.0
2014-Dec-12 05:32N 29°41' W 091°13'0 0.0
2014-Dec-12 04:32N 29°41' W 091°13'0 0.0
2014-Dec-12 03:32N 29°41' W 091°13'0 0.0
2014-Dec-12 02:32N 29°41' W 091°13'4 4.1
2014-Dec-12 01:33N 29°41' W 091°09'6 5.9
2014-Dec-12 00:33N 29°37' W 091°03'7 6.7
2014-Dec-11 23:33N 29°34' W 090°57'  

Dump ship's entire track history